Time;durP1;ratioP1;P1;durP2;ratioP2;P2;SDS_P1;SDS_P2;PMS_P1;PMS_P2;Temp;Humidity;BMP_temperature;BMP_pressure;BME280_temperature;BME280_humidity;BME280_pressure;Samples;Min_cycle;Max_cycle;Signal;HPM_P1;HPM_P2
2022/10/05 00:01:25;;;;;;;9.73;7.00;;;15.50;99.90;;;;;;5067367;28;20123;-31
2022/10/05 00:03:57;;;;;;;11.57;7.50;;;15.50;99.90;;;;;;5067542;28;20044;-33
2022/10/05 00:06:26;;;;;;;8.00;6.77;;;15.50;99.90;;;;;;5071621;28;20040;-32
2022/10/05 00:08:52;;;;;;;9.50;7.75;;;15.50;99.90;;;;;;5073102;28;20066;-32
2022/10/05 00:11:18;;;;;;;7.57;6.85;;;15.40;99.90;;;;;;5068690;28;20119;-30
2022/10/05 00:13:45;;;;;;;8.15;7.15;;;15.40;99.90;;;;;;5059012;28;20112;-32
2022/10/05 00:16:19;;;;;;;10.63;7.43;;;15.40;99.90;;;;;;5072820;28;20047;-30
2022/10/05 00:18:49;;;;;;;8.13;7.05;;;15.40;99.90;;;;;;5068975;28;20507;-30
2022/10/05 00:21:21;;;;;;;8.07;7.28;;;15.40;99.90;;;;;;5072612;28;20044;-31
2022/10/05 00:23:52;;;;;;;8.32;7.18;;;15.40;99.90;;;;;;5062725;28;20036;-31
2022/10/05 00:26:23;;;;;;;8.82;6.43;;;15.40;99.90;;;;;;5083957;28;20132;-32
2022/10/05 00:28:50;;;;;;;7.28;6.57;;;15.40;99.90;;;;;;5073399;28;20028;-32
2022/10/05 00:31:24;;;;;;;8.00;6.95;;;15.40;99.90;;;;;;5064675;28;20028;-33
2022/10/05 00:33:50;;;;;;;7.28;6.45;;;15.40;99.90;;;;;;5066888;28;20040;-33
2022/10/05 00:36:16;;;;;;;7.72;5.93;;;15.40;99.90;;;;;;5051572;28;20079;-34
2022/10/05 00:38:42;;;;;;;8.90;6.60;;;15.30;99.90;;;;;;5065125;28;20105;-32
2022/10/05 00:41:22;;;;;;;7.45;6.13;;;15.30;99.90;;;;;;5072560;28;20440;-31
2022/10/05 00:44:10;;;;;;;7.43;6.15;;;15.30;99.90;;;;;;5061019;28;20054;-33
2022/10/05 00:47:00;;;;;;;7.80;6.63;;;15.30;99.90;;;;;;5062155;28;20538;-31
2022/10/05 00:49:44;;;;;;;7.03;6.30;;;15.40;99.90;;;;;;5057812;28;20076;-31
2022/10/05 00:52:25;;;;;;;8.15;6.18;;;15.40;99.90;;;;;;5056253;28;20036;-31
2022/10/05 00:55:25;;;;;;;9.38;6.80;;;15.40;99.90;;;;;;5066994;28;20052;-31
2022/10/05 00:58:12;;;;;;;7.32;6.32;;;15.40;99.90;;;;;;5058259;28;20056;-31
2022/10/05 01:00:59;;;;;;;8.13;6.43;;;15.40;99.90;;;;;;5061099;28;20398;-32
2022/10/05 01:03:57;;;;;;;11.23;6.68;;;15.40;99.90;;;;;;5052572;28;20040;-31
2022/10/05 01:07:13;;;;;;;11.85;7.40;;;15.40;99.90;;;;;;5062513;28;20686;-32
2022/10/05 01:10:17;;;;;;;9.95;8.00;;;15.40;99.90;;;;;;5031467;28;20040;-32
2022/10/05 01:13:02;;;;;;;10.25;7.57;;;15.30;99.90;;;;;;5054196;28;20033;-32
2022/10/05 01:15:34;;;;;;;9.90;7.75;;;15.30;99.90;;;;;;5065829;28;20047;-31
2022/10/05 01:18:24;;;;;;;10.70;7.82;;;15.30;99.90;;;;;;5058477;28;20040;-32
2022/10/05 01:21:18;;;;;;;11.32;8.88;;;15.30;99.90;;;;;;5066215;28;20053;-31
2022/10/05 01:24:12;;;;;;;10.88;7.82;;;15.30;99.90;;;;;;5065724;28;20035;-31
2022/10/05 01:26:46;;;;;;;10.10;8.90;;;15.30;99.90;;;;;;5066744;28;20045;-32
2022/10/05 01:29:15;;;;;;;10.95;8.63;;;15.30;99.90;;;;;;5051931;28;20043;-31
2022/10/05 01:31:46;;;;;;;11.07;8.43;;;15.30;99.90;;;;;;5068422;28;20028;-32
2022/10/05 01:34:45;;;;;;;11.15;9.13;;;15.20;99.90;;;;;;5072357;28;20071;-32
2022/10/05 01:37:21;;;;;;;12.00;9.10;;;15.20;99.90;;;;;;5048634;28;20048;-31
2022/10/05 01:40:02;;;;;;;12.35;9.45;;;15.20;99.90;;;;;;5067759;28;20036;-31
2022/10/05 01:42:37;;;;;;;11.68;9.18;;;15.20;99.90;;;;;;5070428;28;20039;-31
2022/10/05 01:45:44;;;;;;;10.20;8.52;;;15.20;99.90;;;;;;5070076;28;20031;-32
2022/10/05 01:48:25;;;;;;;14.15;10.30;;;15.20;99.90;;;;;;5072348;28;20063;-33
2022/10/05 01:51:06;;;;;;;12.43;9.00;;;15.20;99.90;;;;;;5070227;28;20090;-32
2022/10/05 01:53:43;;;;;;;11.52;9.05;;;15.20;99.90;;;;;;5072065;28;20037;-32
2022/10/05 01:56:26;;;;;;;10.68;9.32;;;15.20;99.90;;;;;;5066346;28;20058;-31
2022/10/05 01:59:11;;;;;;;16.63;9.80;;;15.20;99.90;;;;;;5067051;28;20071;-31
2022/10/05 02:01:55;;;;;;;12.02;9.23;;;15.20;99.90;;;;;;5067761;28;20032;-31
2022/10/05 02:04:38;;;;;;;11.80;9.15;;;15.20;99.90;;;;;;5073645;28;20032;-31
2022/10/05 02:07:12;;;;;;;10.70;8.50;;;15.20;99.90;;;;;;5071893;28;20051;-32
2022/10/05 02:09:47;;;;;;;10.38;8.68;;;15.20;99.90;;;;;;5067837;28;20166;-31
2022/10/05 02:12:18;;;;;;;13.70;8.55;;;15.20;99.90;;;;;;5060473;28;20181;-31
2022/10/05 02:14:50;;;;;;;10.10;9.10;;;15.20;99.90;;;;;;5074523;28;20036;-32
2022/10/05 02:17:26;;;;;;;10.25;8.68;;;15.20;99.90;;;;;;5074771;28;20051;-33
2022/10/05 02:20:00;;;;;;;11.90;8.60;;;15.20;99.90;;;;;;5039001;28;20059;-31
2022/10/05 02:22:31;;;;;;;11.52;8.95;;;15.10;99.90;;;;;;5068041;28;20028;-33
2022/10/05 02:25:02;;;;;;;10.07;8.75;;;15.10;99.90;;;;;;5068229;28;20052;-34
2022/10/05 02:27:31;;;;;;;9.80;8.25;;;15.10;99.90;;;;;;5071709;28;20044;-31
2022/10/05 02:30:02;;;;;;;9.90;7.85;;;15.10;99.90;;;;;;5068407;28;20040;-32
2022/10/05 02:32:35;;;;;;;11.85;8.95;;;15.10;99.90;;;;;;5073987;28;20039;-31
2022/10/05 02:35:08;;;;;;;11.95;8.73;;;15.10;99.90;;;;;;5056294;28;20046;-32
2022/10/05 02:37:45;;;;;;;10.30;8.30;;;15.10;99.90;;;;;;5071663;28;20127;-30
2022/10/05 02:40:32;;;;;;;12.05;9.32;;;15.10;99.90;;;;;;5062306;28;20041;-34
2022/10/05 02:43:20;;;;;;;12.27;8.82;;;15.00;99.90;;;;;;5073980;28;20458;-32
2022/10/05 02:45:46;;;;;;;12.80;9.00;;;15.00;99.90;;;;;;5066644;28;20036;-33
2022/10/05 02:48:35;;;;;;;8.70;7.80;;;15.00;99.90;;;;;;5073735;28;20050;-31
2022/10/05 02:51:25;;;;;;;11.90;8.07;;;15.00;99.90;;;;;;5080957;28;20047;-32
2022/10/05 02:54:16;;;;;;;9.40;7.45;;;15.00;99.90;;;;;;5068482;28;20048;-31
2022/10/05 02:57:08;;;;;;;13.15;7.97;;;15.00;99.90;;;;;;5069451;28;20039;-32
2022/10/05 02:59:48;;;;;;;9.02;7.22;;;15.00;99.90;;;;;;5069432;28;20035;-31
2022/10/05 03:02:22;;;;;;;10.65;8.43;;;15.00;99.90;;;;;;5064450;28;20036;-31
2022/10/05 03:05:06;;;;;;;9.02;7.72;;;15.00;99.90;;;;;;5061329;28;20028;-31
2022/10/05 03:08:02;;;;;;;9.40;7.18;;;15.00;99.90;;;;;;5072543;28;20383;-32
2022/10/05 03:10:48;;;;;;;10.32;7.50;;;15.00;99.90;;;;;;5072944;28;20065;-31
2022/10/05 03:13:39;;;;;;;8.80;7.25;;;15.00;99.90;;;;;;5051952;28;20044;-31
2022/10/05 03:16:27;;;;;;;11.02;7.35;;;15.00;99.90;;;;;;5060802;28;20083;-30
2022/10/05 03:19:09;;;;;;;8.07;7.15;;;15.00;99.90;;;;;;5069338;28;20040;-32
2022/10/05 03:21:49;;;;;;;9.38;7.88;;;15.00;99.90;;;;;;5065804;28;20039;-31
2022/10/05 03:24:51;;;;;;;9.85;7.78;;;14.90;99.90;;;;;;5053004;28;20379;-32
2022/10/05 03:27:43;;;;;;;10.20;7.65;;;14.90;99.90;;;;;;5073082;28;20116;-32
2022/10/05 03:30:20;;;;;;;10.07;7.63;;;14.80;99.90;;;;;;5068873;28;20214;-31
2022/10/05 03:33:28;;;;;;;9.30;7.82;;;14.80;99.90;;;;;;5053770;28;20486;-32
2022/10/05 03:36:09;;;;;;;11.52;8.20;;;14.80;99.90;;;;;;5065772;28;20036;-32
2022/10/05 03:38:53;;;;;;;11.82;8.55;;;14.80;99.90;;;;;;5065996;28;20031;-31
2022/10/05 03:41:40;;;;;;;9.88;8.02;;;14.80;99.90;;;;;;5069532;28;20081;-31
2022/10/05 03:44:05;;;;;;;11.48;8.77;;;14.80;99.90;;;;;;5066498;28;20132;-31
2022/10/05 03:46:50;;;;;;;10.45;8.93;;;14.80;99.90;;;;;;5069339;28;20091;-33
2022/10/05 03:49:50;;;;;;;9.43;8.43;;;14.80;99.90;;;;;;5061664;28;20033;-32
2022/10/05 03:52:30;;;;;;;9.85;7.95;;;14.80;99.90;;;;;;5070168;28;20040;-32
2022/10/05 03:55:05;;;;;;;12.35;8.48;;;14.80;99.90;;;;;;5065974;28;20040;-33
2022/10/05 03:57:39;;;;;;;9.23;7.93;;;14.80;99.90;;;;;;5054460;28;20044;-33
2022/10/05 04:00:14;;;;;;;12.00;9.15;;;14.80;99.90;;;;;;5067697;28;20085;-32
2022/10/05 04:03:15;;;;;;;10.27;8.63;;;14.80;99.90;;;;;;5041060;28;20159;-32
2022/10/05 04:06:03;;;;;;;10.43;8.60;;;14.80;99.90;;;;;;5058005;28;20047;-31
2022/10/05 04:08:41;;;;;;;10.85;8.95;;;14.80;99.90;;;;;;5070107;28;20036;-31
2022/10/05 04:11:15;;;;;;;11.52;8.73;;;14.80;99.90;;;;;;5062488;28;20128;-31
2022/10/05 04:13:43;;;;;;;10.77;9.68;;;14.80;99.90;;;;;;5060850;28;20068;-31
2022/10/05 04:16:14;;;;;;;11.18;8.30;;;14.80;99.90;;;;;;5065481;28;20512;-32
2022/10/05 04:18:47;;;;;;;12.77;9.70;;;14.80;99.90;;;;;;5066178;28;20036;-32
2022/10/05 04:21:20;;;;;;;14.50;9.15;;;14.80;99.90;;;;;;5064584;28;20504;-32
2022/10/05 04:24:23;;;;;;;10.50;8.77;;;14.80;99.90;;;;;;5072334;28;20366;-31
2022/10/05 04:27:10;;;;;;;11.65;9.30;;;14.80;99.90;;;;;;5057376;28;20485;-31
2022/10/05 04:29:42;;;;;;;12.85;9.63;;;14.70;99.90;;;;;;5057933;28;20068;-30
2022/10/05 04:32:26;;;;;;;12.52;9.75;;;14.70;99.90;;;;;;5055555;28;20041;-32
2022/10/05 04:35:11;;;;;;;11.05;9.93;;;14.70;99.90;;;;;;5075006;28;20056;-32
2022/10/05 04:37:43;;;;;;;13.55;9.95;;;14.70;99.90;;;;;;5060162;28;20489;-31
2022/10/05 04:40:24;;;;;;;12.93;9.85;;;14.70;99.90;;;;;;5061538;28;20090;-32
2022/10/05 04:43:28;;;;;;;14.75;10.32;;;14.60;99.90;;;;;;5051011;28;20048;-31
2022/10/05 04:46:13;;;;;;;12.60;10.20;;;14.60;99.90;;;;;;5058290;28;20048;-33
2022/10/05 04:49:32;;;;;;;13.63;10.73;;;14.50;99.90;;;;;;5058135;28;20043;-33
2022/10/05 04:52:19;;;;;;;12.95;10.23;;;14.50;99.90;;;;;;5054030;28;20466;-32
2022/10/05 04:54:50;;;;;;;12.80;10.18;;;14.40;99.90;;;;;;5066113;28;20083;-32
2022/10/05 04:57:25;;;;;;;13.52;10.35;;;14.40;99.90;;;;;;5058077;28;20508;-30
2022/10/05 05:00:00;;;;;;;14.82;10.75;;;14.40;99.90;;;;;;5055578;28;20128;-30
2022/10/05 05:02:38;;;;;;;16.45;11.05;;;14.30;99.90;;;;;;5069444;28;20051;-30
2022/10/05 05:05:26;;;;;;;14.57;11.85;;;14.30;99.90;;;;;;5062072;28;20073;-32
2022/10/05 05:08:10;;;;;;;14.18;11.50;;;14.20;99.90;;;;;;5062075;28;20480;-31
2022/10/05 05:10:42;;;;;;;12.27;10.85;;;14.20;99.90;;;;;;5066479;28;20064;-32
2022/10/05 05:13:13;;;;;;;15.60;11.13;;;14.20;99.90;;;;;;5059027;28;20391;-31
2022/10/05 05:16:01;;;;;;;15.98;11.48;;;14.20;99.90;;;;;;5062206;28;20066;-31
2022/10/05 05:18:40;;;;;;;16.73;11.52;;;14.10;99.90;;;;;;5066313;28;20170;-32
2022/10/05 05:21:24;;;;;;;14.43;12.00;;;14.20;99.90;;;;;;5064594;28;20036;-33
2022/10/05 05:24:02;;;;;;;15.70;12.00;;;14.20;99.90;;;;;;5059457;28;20045;-33
2022/10/05 05:26:38;;;;;;;16.02;12.23;;;14.20;99.90;;;;;;5061320;28;20062;-31
2022/10/05 05:29:18;;;;;;;15.90;12.63;;;14.10;99.90;;;;;;5041111;28;20067;-32
2022/10/05 05:31:51;;;;;;;14.85;12.77;;;14.10;99.90;;;;;;5069287;28;20028;-34
2022/10/05 05:34:41;;;;;;;15.10;12.52;;;14.10;99.90;;;;;;5061254;28;20119;-32
2022/10/05 05:37:13;;;;;;;17.35;12.43;;;14.10;99.90;;;;;;5079646;28;20128;-30
2022/10/05 05:39:57;;;;;;;15.32;12.13;;;14.10;99.90;;;;;;5072276;28;20070;-31
2022/10/05 05:42:46;;;;;;;17.95;13.32;;;14.10;99.90;;;;;;5063748;28;20047;-31
2022/10/05 05:45:37;;;;;;;14.25;12.48;;;14.10;99.90;;;;;;5060398;28;20032;-31
2022/10/05 05:48:16;;;;;;;17.08;12.60;;;14.10;99.90;;;;;;5069458;28;20070;-32
2022/10/05 05:50:57;;;;;;;14.27;11.40;;;14.20;99.90;;;;;;5062220;28;20044;-31
2022/10/05 05:53:32;;;;;;;13.60;12.20;;;14.20;99.90;;;;;;5067593;28;20472;-31
2022/10/05 05:56:11;;;;;;;16.67;12.95;;;14.20;99.90;;;;;;5065480;28;20039;-31
2022/10/05 05:58:55;;;;;;;14.70;12.32;;;14.20;99.90;;;;;;5083665;28;20074;-30
2022/10/05 06:01:21;;;;;;;;;;;14.20;99.90;;;;;;5088458;28;20036;-32
2022/10/05 06:03:56;;;;;;;13.70;11.30;;;14.20;99.90;;;;;;5058566;28;19922;-32
2022/10/05 06:06:31;;;;;;;17.80;12.38;;;14.20;99.90;;;;;;5073629;28;20123;-30
2022/10/05 06:09:02;;;;;;;17.08;12.88;;;14.20;99.90;;;;;;5057841;28;20044;-31
2022/10/05 06:11:40;;;;;;;15.82;11.82;;;14.30;99.90;;;;;;5069938;28;20035;-31
2022/10/05 06:14:16;;;;;;;14.20;12.15;;;14.30;99.90;;;;;;5064624;28;20036;-32
2022/10/05 06:16:52;;;;;;;16.50;13.40;;;14.30;99.90;;;;;;5063111;28;20071;-30
2022/10/05 06:19:22;;;;;;;16.15;12.23;;;14.30;99.90;;;;;;5067485;28;20080;-31
2022/10/05 06:22:21;;;;;;;14.25;12.13;;;14.30;99.90;;;;;;5072690;28;20074;-31
2022/10/05 06:25:09;;;;;;;17.08;12.90;;;14.40;99.90;;;;;;5073020;28;20375;-31
2022/10/05 06:27:35;;;;;;;15.10;12.73;;;14.40;99.90;;;;;;5065248;28;20123;-32
2022/10/05 06:30:04;;;;;;;14.80;11.68;;;14.40;99.90;;;;;;5071536;28;20497;-31
2022/10/05 06:32:54;;;;;;;13.35;12.05;;;14.40;99.90;;;;;;5073893;28;20040;-31
2022/10/05 06:35:39;;;;;;;13.43;11.63;;;14.50;99.90;;;;;;5054917;28;20519;-31
2022/10/05 06:38:32;;;;;;;12.90;10.95;;;14.50;99.90;;;;;;5063612;28;20066;-31
2022/10/05 06:41:31;;;;;;;13.77;12.25;;;14.50;99.90;;;;;;5069139;28;20047;-32
2022/10/05 06:44:13;;;;;;;14.85;12.05;;;14.50;99.90;;;;;;5061604;28;20040;-30
2022/10/05 06:46:47;;;;;;;14.00;12.25;;;14.60;99.90;;;;;;5059548;28;20044;-34
2022/10/05 06:49:31;;;;;;;;;;;14.50;99.90;;;;;;5064922;28;20067;-31
2022/10/05 06:52:26;;;;;;;13.00;10.98;;;14.60;99.90;;;;;;5062882;28;19920;-31
2022/10/05 06:55:11;;;;;;;15.05;12.88;;;14.60;99.90;;;;;;5055375;28;20056;-31
2022/10/05 06:58:12;;;;;;;13.43;11.77;;;14.60;99.90;;;;;;5046620;28;20040;-31
2022/10/05 07:00:51;;;;;;;12.25;11.02;;;14.60;99.90;;;;;;5069427;28;20086;-31
2022/10/05 07:03:31;;;;;;;13.50;11.15;;;14.60;99.90;;;;;;5067229;28;20036;-30
2022/10/05 07:06:02;;;;;;;11.77;10.48;;;14.70;99.90;;;;;;5068497;28;20032;-31
2022/10/05 07:08:37;;;;;;;13.68;10.50;;;14.70;99.90;;;;;;5061953;28;20040;-32
2022/10/05 07:11:28;;;;;;;12.32;11.00;;;14.70;99.90;;;;;;5064223;28;20044;-30
2022/10/05 07:14:26;;;;;;;12.95;10.80;;;14.70;99.90;;;;;;5065820;28;20473;-31
2022/10/05 07:16:58;;;;;;;11.75;10.18;;;14.80;99.90;;;;;;5057485;28;20052;-32
2022/10/05 07:19:59;;;;;;;12.15;10.85;;;14.80;99.90;;;;;;5074446;28;20032;-32
2022/10/05 07:22:37;;;;;;;12.65;10.90;;;14.80;99.90;;;;;;5066074;28;20039;-31
2022/10/05 07:25:31;;;;;;;11.43;10.25;;;14.90;99.90;;;;;;5064224;28;20112;-31
2022/10/05 07:28:14;;;;;;;14.00;10.90;;;14.90;99.90;;;;;;5059717;28;20049;-31
2022/10/05 07:30:55;;;;;;;12.90;11.48;;;14.90;99.90;;;;;;5073937;28;20485;-31
2022/10/05 07:33:36;;;;;;;11.35;9.48;;;14.90;99.90;;;;;;5067749;28;20500;-32
2022/10/05 07:39:22;;;;;;;11.57;10.15;;;15.00;99.90;;;;;;5077610;28;20075;-30
2022/10/05 07:42:07;;;;;;;11.23;10.07;;;15.00;99.90;;;;;;5071888;28;20032;-30
2022/10/05 07:44:42;;;;;;;12.75;9.77;;;15.00;99.90;;;;;;5063165;28;20040;-32
2022/10/05 07:47:27;;;;;;;12.38;10.48;;;15.00;99.90;;;;;;5069105;28;20073;-30
2022/10/05 07:50:03;;;;;;;10.98;9.82;;;15.10;99.90;;;;;;5067573;28;20182;-31
2022/10/05 07:52:37;;;;;;;13.68;9.98;;;15.10;99.90;;;;;;5072482;28;20043;-32
2022/10/05 07:55:03;;;;;;;;;;;15.20;99.90;;;;;;5074037;28;20044;-32
2022/10/05 07:57:32;;;;;;;11.57;10.05;;;15.20;99.90;;;;;;5068470;28;19923;-32
2022/10/05 08:00:05;;;;;;;11.40;10.20;;;15.30;99.90;;;;;;5054791;28;20040;-33
2022/10/05 08:02:46;;;;;;;14.27;11.32;;;15.30;99.90;;;;;;5060863;28;20375;-30
2022/10/05 08:05:27;;;;;;;10.88;9.73;;;15.40;99.90;;;;;;5066124;28;20044;-31
2022/10/05 08:08:09;;;;;;;11.00;9.75;;;15.40;99.90;;;;;;5067282;28;20576;-31
2022/10/05 08:10:58;;;;;;;10.93;9.82;;;15.50;99.90;;;;;;5062088;28;20028;-31
2022/10/05 08:13:52;;;;;;;10.65;9.35;;;15.50;99.90;;;;;;5078125;28;20044;-31
2022/10/05 08:16:19;;;;;;;9.98;8.98;;;15.50;99.90;;;;;;5057332;28;20041;-31
2022/10/05 08:19:18;;;;;;;11.43;9.65;;;15.50;99.90;;;;;;5064537;28;20047;-32
2022/10/05 08:21:54;;;;;;;9.60;8.60;;;15.50;99.90;;;;;;5059152;28;20037;-32
2022/10/05 08:24:53;;;;;;;10.95;9.55;;;15.60;99.90;;;;;;5067881;28;20036;-31
2022/10/05 08:27:46;;;;;;;10.20;9.32;;;15.60;99.90;;;;;;5071758;28;20032;-32
2022/10/05 08:30:15;;;;;;;10.52;9.00;;;15.60;99.90;;;;;;5062293;28;20083;-32
2022/10/05 08:32:49;;;;;;;9.80;8.90;;;15.70;99.90;;;;;;5067933;28;20204;-32
2022/10/05 08:35:26;;;;;;;9.60;8.60;;;15.70;99.90;;;;;;5062443;28;20036;-32
2022/10/05 08:37:52;;;;;;;10.15;8.35;;;15.80;99.90;;;;;;5097247;28;20040;-32
2022/10/05 08:40:21;;;;;;;11.27;9.50;;;15.80;99.90;;;;;;5078958;28;20040;-31
2022/10/05 08:42:46;;;;;;;11.07;8.95;;;15.90;99.90;;;;;;5067248;28;20040;-33
2022/10/05 08:45:31;;;;;;;9.20;8.40;;;16.00;99.90;;;;;;5063633;28;20036;-32
2022/10/05 08:47:56;;;;;;;10.18;8.82;;;16.00;99.90;;;;;;5068294;28;20059;-31
2022/10/05 08:50:57;;;;;;;9.93;8.77;;;16.10;99.90;;;;;;5071922;28;20493;-32
2022/10/05 08:53:55;;;;;;;8.85;8.02;;;16.10;99.90;;;;;;5071660;28;20089;-33
2022/10/05 08:56:36;;;;;;;9.15;7.80;;;16.20;99.90;;;;;;5069123;28;20443;-31
2022/10/05 08:59:13;;;;;;;9.48;8.57;;;16.30;99.90;;;;;;5070269;28;20040;-31
2022/10/05 09:02:02;;;;;;;8.60;7.80;;;16.30;99.90;;;;;;5066758;28;20036;-31
2022/10/05 09:04:34;;;;;;;8.93;7.90;;;16.50;99.90;;;;;;5076549;28;20478;-31
2022/10/05 09:07:33;;;;;;;8.25;7.40;;;16.60;99.90;;;;;;5070953;28;20040;-34
2022/10/05 09:10:24;;;;;;;8.02;7.32;;;16.80;99.90;;;;;;5069160;28;20032;-33
2022/10/05 09:13:14;;;;;;;7.88;7.10;;;16.80;99.90;;;;;;5069191;28;20478;-34
2022/10/05 09:16:06;;;;;;;7.10;6.43;;;17.00;99.90;;;;;;5069341;28;20038;-32
2022/10/05 09:18:47;;;;;;;8.43;6.57;;;17.00;99.90;;;;;;5056509;28;20436;-32
2022/10/05 09:21:43;;;;;;;7.68;6.85;;;17.00;99.90;;;;;;5065984;28;20041;-32
2022/10/05 09:24:11;;;;;;;9.93;6.35;;;17.00;99.90;;;;;;5073802;28;20036;-34
2022/10/05 09:26:43;;;;;;;7.10;6.40;;;17.00;99.90;;;;;;5050383;28;20068;-33
2022/10/05 09:29:27;;;;;;;7.78;6.43;;;17.00;99.90;;;;;;5062805;28;20047;-31
2022/10/05 09:32:05;;;;;;;6.72;6.13;;;17.00;99.90;;;;;;5065668;28;20076;-32
2022/10/05 09:34:40;;;;;;;7.85;6.40;;;16.90;99.90;;;;;;5074615;28;20043;-33
2022/10/05 09:37:21;;;;;;;7.70;5.85;;;17.00;99.90;;;;;;5065406;28;20049;-34
2022/10/05 09:40:08;;;;;;;6.53;5.88;;;16.90;99.90;;;;;;5069133;28;20064;-33
2022/10/05 09:43:11;;;;;;;6.47;5.88;;;16.90;99.90;;;;;;5069446;28;20028;-33
2022/10/05 09:45:58;;;;;;;6.40;5.68;;;16.90;99.90;;;;;;5065007;28;20493;-33
2022/10/05 09:48:46;;;;;;;7.85;6.28;;;16.80;99.90;;;;;;5071721;28;20067;-34
2022/10/05 09:51:50;;;;;;;7.25;6.35;;;16.80;99.90;;;;;;5082162;28;20525;-33
2022/10/05 09:54:19;;;;;;;6.55;5.57;;;16.80;99.90;;;;;;5067075;28;20076;-33
2022/10/05 09:57:13;;;;;;;7.55;6.40;;;16.80;99.90;;;;;;5067883;28;20032;-32
2022/10/05 09:59:54;;;;;;;9.90;6.55;;;16.70;99.90;;;;;;5070618;28;20081;-33
2022/10/05 10:02:36;;;;;;;7.07;6.38;;;16.70;99.90;;;;;;5076038;28;20036;-32
2022/10/05 10:05:30;;;;;;;7.45;6.70;;;16.70;99.90;;;;;;5071537;28;20509;-30
2022/10/05 10:08:14;;;;;;;8.68;6.68;;;16.70;99.90;;;;;;5066065;28;20082;-34
2022/10/05 10:10:59;;;;;;;;;;;16.70;99.90;;;;;;5060108;28;20032;-30
2022/10/05 10:13:35;;;;;;;8.25;6.60;;;16.70;99.90;;;;;;5064000;28;19916;-31
2022/10/05 10:16:29;;;;;;;7.00;6.40;;;16.70;99.90;;;;;;5068297;28;20032;-30
2022/10/05 10:18:58;;;;;;;8.68;6.65;;;16.70;99.90;;;;;;5064484;28;20458;-35
2022/10/05 10:21:32;;;;;;;7.70;6.93;;;16.80;99.90;;;;;;5056898;28;20067;-30
2022/10/05 10:24:14;;;;;;;7.05;6.35;;;16.80;99.90;;;;;;5063020;28;20043;-31
2022/10/05 10:26:42;;;;;;;7.30;6.63;;;16.90;99.90;;;;;;5071567;28;20039;-31
2022/10/05 10:29:13;;;;;;;7.10;6.40;;;17.00;99.90;;;;;;5086164;28;20375;-30
2022/10/05 10:32:09;;;;;;;7.03;6.30;;;17.00;99.90;;;;;;5048966;28;20077;-31
2022/10/05 10:34:52;;;;;;;6.88;6.28;;;17.10;99.90;;;;;;5069448;28;20056;-30
2022/10/05 10:37:38;;;;;;;6.40;5.90;;;17.10;99.90;;;;;;5068059;28;20040;-30
2022/10/05 10:40:16;;;;;;;6.30;5.70;;;17.10;99.90;;;;;;5063624;28;20115;-29
2022/10/05 10:43:06;;;;;;;5.82;5.30;;;17.10;99.90;;;;;;5060094;28;20044;-31
2022/10/05 10:45:53;;;;;;;7.22;6.43;;;17.10;99.90;;;;;;5071533;28;20122;-29
2022/10/05 10:48:18;;;;;;;6.35;5.78;;;17.10;99.90;;;;;;5066275;28;20036;-31
2022/10/05 10:51:05;;;;;;;9.18;5.78;;;17.10;99.90;;;;;;5063260;28;20028;-31
2022/10/05 10:53:40;;;;;;;6.07;5.45;;;17.20;99.90;;;;;;5075297;28;20054;-30
2022/10/05 10:56:32;;;;;;;5.55;5.03;;;17.30;99.90;;;;;;5056836;28;20041;-31
2022/10/05 10:59:22;;;;;;;4.60;4.30;;;17.30;99.90;;;;;;5061189;28;20480;-31
2022/10/05 11:02:10;;;;;;;4.68;4.28;;;17.40;99.90;;;;;;5058862;28;20115;-30
2022/10/05 11:04:52;;;;;;;4.32;3.97;;;17.50;99.90;;;;;;5073732;28;20032;-29
2022/10/05 11:07:35;;;;;;;5.10;4.10;;;17.60;99.90;;;;;;5068445;28;20079;-31
2022/10/05 11:10:25;;;;;;;4.10;3.55;;;17.60;99.90;;;;;;5075259;28;20060;-30
2022/10/05 11:13:09;;;;;;;4.25;3.72;;;17.70;99.90;;;;;;5062834;28;20044;-30
2022/10/05 11:15:41;;;;;;;3.78;3.47;;;17.90;99.90;;;;;;5067165;28;20039;-31
2022/10/05 11:18:16;;;;;;;4.35;3.95;;;18.00;99.90;;;;;;5072935;28;20039;-31
2022/10/05 11:21:03;;;;;;;4.65;3.78;;;18.20;99.90;;;;;;5060811;28;20123;-31
2022/10/05 11:23:43;;;;;;;3.85;3.55;;;18.30;99.90;;;;;;5065552;28;20508;-30
2022/10/05 11:26:54;;;;;;;6.05;4.28;;;18.40;99.90;;;;;;5066595;28;20437;-30
2022/10/05 11:29:23;;;;;;;6.43;3.92;;;18.40;99.90;;;;;;5073046;28;20035;-31
2022/10/05 11:32:10;;;;;;;4.63;4.22;;;18.40;99.90;;;;;;5061311;28;20031;-30
2022/10/05 11:34:50;;;;;;;4.72;4.10;;;18.40;99.90;;;;;;5073228;28;20044;-33
2022/10/05 11:37:39;;;;;;;7.05;4.13;;;18.40;99.90;;;;;;5060888;28;20084;-30
2022/10/05 11:40:42;;;;;;;5.68;4.10;;;18.40;99.90;;;;;;5017893;28;20050;-31
2022/10/05 11:43:41;;;;;;;5.65;4.55;;;18.40;99.90;;;;;;5069261;28;20089;-30
2022/10/05 11:46:15;;;;;;;4.82;4.03;;;18.40;99.90;;;;;;5073475;28;20379;-30
2022/10/05 11:48:41;;;;;;;5.70;4.13;;;18.30;99.90;;;;;;5074523;28;20086;-30
2022/10/05 11:52:01;;;;;;;4.95;3.95;;;18.40;99.90;;;;;;5071707;28;20064;-31
2022/10/05 11:54:37;;;;;;;5.82;4.07;;;18.30;99.90;;;;;;4974037;28;20038;-32
2022/10/05 11:57:27;;;;;;;4.53;3.83;;;18.30;99.90;;;;;;5059955;28;20476;-32
2022/10/05 12:00:05;;;;;;;4.78;4.20;;;18.30;99.90;;;;;;5061743;28;20040;-31
2022/10/05 12:02:37;;;;;;;5.63;4.15;;;18.20;99.90;;;;;;5065629;28;20040;-32
2022/10/05 12:05:40;;;;;;;5.70;4.03;;;18.20;99.90;;;;;;5066698;28;20040;-30
2022/10/05 12:08:27;;;;;;;6.07;3.97;;;18.20;99.90;;;;;;5059177;28;20036;-31
2022/10/05 12:11:23;;;;;;;5.45;4.28;;;18.20;99.90;;;;;;5067809;28;20443;-31
2022/10/05 12:14:05;;;;;;;5.80;4.13;;;18.20;99.90;;;;;;5081049;28;20051;-30
2022/10/05 12:16:30;;;;;;;5.38;4.15;;;18.10;99.90;;;;;;5067233;28;20498;-30
2022/10/05 12:19:08;;;;;;;4.25;3.83;;;18.10;99.90;;;;;;5069958;28;20125;-31
2022/10/05 12:21:47;;;;;;;6.50;4.00;;;18.00;99.90;;;;;;5066122;28;20161;-30
2022/10/05 12:24:26;;;;;;;6.20;4.18;;;18.00;99.90;;;;;;5071637;28;20512;-31
2022/10/05 12:27:10;;;;;;;8.75;4.03;;;18.00;99.90;;;;;;5071828;28;20044;-30
2022/10/05 12:29:45;;;;;;;3.92;3.60;;;18.00;99.90;;;;;;5069786;28;20036;-30
2022/10/05 12:32:29;;;;;;;3.88;3.58;;;18.00;99.90;;;;;;5073513;28;20487;-30
2022/10/05 12:35:22;;;;;;;5.28;3.83;;;18.00;99.90;;;;;;5071177;28;20069;-30
2022/10/05 12:38:09;;;;;;;4.13;3.70;;;18.00;99.90;;;;;;5076162;28;20064;-30
2022/10/05 12:40:55;;;;;;;4.63;3.72;;;18.00;99.90;;;;;;5062197;28;20493;-30
2022/10/05 12:43:47;;;;;;;5.25;4.40;;;18.00;99.90;;;;;;5072081;28;20054;-30
2022/10/05 12:46:36;;;;;;;4.70;3.95;;;18.10;99.90;;;;;;5057762;28;20044;-30
2022/10/05 12:49:22;;;;;;;6.15;3.70;;;18.10;99.90;;;;;;5069869;28;20032;-30
2022/10/05 12:51:48;;;;;;;5.38;3.78;;;18.10;99.90;;;;;;5075549;28;20040;-30
2022/10/05 12:54:36;;;;;;;4.43;3.67;;;18.10;99.90;;;;;;5072882;28;20039;-30
2022/10/05 12:57:21;;;;;;;4.50;3.33;;;18.30;99.90;;;;;;5074273;28;20044;-31
2022/10/05 12:59:56;;;;;;;3.78;3.17;;;18.50;99.90;;;;;;5061318;28;20563;-30
2022/10/05 13:02:42;;;;;;;6.05;3.53;;;18.60;99.90;;;;;;5056182;28;20067;-31
2022/10/05 13:05:08;;;;;;;4.63;3.75;;;18.70;99.90;;;;;;5054005;28;20042;-31
2022/10/05 13:07:34;;;;;;;3.70;3.40;;;18.60;99.90;;;;;;5064870;28;20041;-30
2022/10/05 13:10:28;;;;;;;5.57;3.50;;;18.60;99.90;;;;;;5071617;28;20051;-31
2022/10/05 13:12:59;;;;;;;4.43;3.10;;;18.60;99.90;;;;;;5063192;28;20047;-32
2022/10/05 13:15:31;;;;;;;3.92;3.10;;;18.60;99.90;;;;;;5072422;28;20489;-32
2022/10/05 13:18:08;;;;;;;3.88;3.28;;;18.60;99.90;;;;;;5061290;28;20037;-31
2022/10/05 13:20:46;;;;;;;5.63;3.35;;;18.70;99.90;;;;;;5088163;28;20048;-30
2022/10/05 13:23:30;;;;;;;5.65;3.33;;;18.60;99.90;;;;;;5067488;28;20036;-31
2022/10/05 13:26:11;;;;;;;4.78;3.30;;;18.70;99.90;;;;;;5062488;28;20063;-31
2022/10/05 13:28:46;;;;;;;3.17;2.80;;;18.70;99.90;;;;;;5094676;28;20027;-32
2022/10/05 13:31:28;;;;;;;5.22;3.25;;;18.60;99.90;;;;;;5078142;28;20042;-31
2022/10/05 13:34:20;;;;;;;3.70;2.72;;;18.60;99.90;;;;;;5062580;28;20109;-32
2022/10/05 13:37:24;;;;;;;5.88;3.10;;;18.60;99.90;;;;;;5065549;28;20405;-30
2022/10/05 13:40:28;;;;;;;3.30;3.00;;;18.70;99.90;;;;;;5031931;28;20047;-32
2022/10/05 13:43:32;;;;;;;4.65;2.88;;;18.80;99.90;;;;;;5024065;28;20062;-31
2022/10/05 13:46:13;;;;;;;4.50;3.35;;;18.90;99.90;;;;;;5072818;28;20159;-30
2022/10/05 13:49:13;;;;;;;3.95;3.10;;;18.90;99.90;;;;;;5067437;28;20146;-31
2022/10/05 13:51:42;;;;;;;5.78;2.90;;;19.00;99.90;;;;;;5060098;28;20040;-30
2022/10/05 13:54:36;;;;;;;3.33;2.97;;;19.00;99.90;;;;;;5089447;28;20032;-31
2022/10/05 13:57:45;;;;;;;6.68;3.55;;;19.10;99.90;;;;;;5058893;28;20382;-31
2022/10/05 14:00:22;;;;;;;5.05;3.10;;;19.10;99.90;;;;;;5073691;28;20043;-30